createdAt,value
2017-03-15T00:00:14.833Z,8
2017-03-15T00:01:16.694Z,8.1
2017-03-15T00:02:18.896Z,8
2017-03-15T00:03:20.766Z,7.9
2017-03-15T00:04:22.979Z,7.9
2017-03-15T00:05:24.829Z,7.9
2017-03-15T00:06:26.702Z,7.9
2017-03-15T00:07:28.574Z,7.9
2017-03-15T00:08:30.777Z,7.9
2017-03-15T00:09:32.640Z,8
2017-03-15T00:10:34.503Z,8
2017-03-15T00:11:36.383Z,7.9
2017-03-15T00:12:38.598Z,7.9
2017-03-15T00:13:40.864Z,7.8
2017-03-15T00:14:43.086Z,7.9
2017-03-15T00:15:45.289Z,7.9
2017-03-15T00:16:47.501Z,7.9
2017-03-15T00:17:49.699Z,7.9
2017-03-15T00:18:51.551Z,7.8
2017-03-15T00:19:54.091Z,7.8
2017-03-15T00:20:55.939Z,7.8
2017-03-15T00:21:58.147Z,7.8
2017-03-15T00:22:59.994Z,7.8
2017-03-15T00:24:02.203Z,7.9
2017-03-15T00:25:04.060Z,7.9
2017-03-15T00:26:05.926Z,7.8
2017-03-15T00:27:07.766Z,7.8
2017-03-15T00:28:09.642Z,7.8
2017-03-15T00:29:11.837Z,7.9
2017-03-15T00:30:13.710Z,7.9
2017-03-15T00:31:15.922Z,7.9
2017-03-15T00:32:17.777Z,7.9
2017-03-15T00:33:19.992Z,7.9
2017-03-15T00:34:22.203Z,7.9
2017-03-15T00:35:24.399Z,7.9
2017-03-15T00:36:26.267Z,7.9
2017-03-15T00:37:28.117Z,8
2017-03-15T00:38:29.988Z,8
2017-03-15T00:39:32.878Z,7.9
2017-03-15T00:40:35.407Z,7.9
2017-03-15T00:41:37.259Z,7.9
2017-03-15T00:42:39.120Z,8
2017-03-15T00:43:40.983Z,8
2017-03-15T00:44:42.862Z,8
2017-03-15T00:45:45.459Z,7.9
2017-03-15T00:46:48.340Z,7.8
2017-03-15T00:47:50.547Z,7.8
2017-03-15T00:48:52.750Z,7.8
2017-03-15T00:49:54.947Z,7.8
2017-03-15T00:50:57.164Z,7.7
2017-03-15T00:51:59.041Z,7.7
2017-03-15T00:53:00.897Z,7.7
2017-03-15T00:54:02.756Z,7.7
2017-03-15T00:55:04.624Z,7.7
2017-03-15T00:56:06.479Z,7.7
2017-03-15T00:57:08.343Z,7.6
2017-03-15T00:58:10.205Z,7.6
2017-03-15T00:59:12.445Z,7.6
2017-03-15T01:00:14.312Z,7.6
2017-03-15T01:01:16.202Z,7.6
2017-03-15T01:02:18.065Z,7.6
2017-03-15T01:03:19.946Z,7.7
2017-03-15T01:04:22.137Z,7.6
2017-03-15T01:05:24.332Z,7.6
2017-03-15T01:06:26.527Z,7.6
2017-03-15T01:07:28.744Z,7.6
2017-03-15T01:08:30.939Z,7.7
2017-03-15T01:09:32.795Z,7.7
2017-03-15T01:10:34.987Z,7.7
2017-03-15T01:11:36.853Z,7.7
2017-03-15T01:12:39.061Z,7.6
2017-03-15T01:13:41.269Z,7.6
2017-03-15T01:14:43.484Z,7.6
2017-03-15T01:15:45.343Z,7.6
2017-03-15T01:16:47.218Z,7.7
2017-03-15T01:17:49.401Z,7.7
2017-03-15T01:18:51.607Z,7.7
2017-03-15T01:19:53.829Z,7.7
2017-03-15T01:20:56.368Z,7.7
2017-03-15T01:21:58.929Z,7.7
2017-03-15T01:23:00.783Z,7.7
2017-03-15T01:24:02.640Z,7.7
2017-03-15T01:25:04.517Z,7.7
2017-03-15T01:26:06.380Z,7.6
2017-03-15T01:27:08.247Z,7.7
2017-03-15T01:28:10.451Z,7.7
2017-03-15T01:29:12.315Z,7.6
2017-03-15T01:30:14.532Z,7.6
2017-03-15T01:31:16.407Z,7.6
2017-03-15T01:32:18.620Z,7.6
2017-03-15T01:33:21.494Z,7.6
2017-03-15T01:34:23.355Z,7.6
2017-03-15T01:35:25.559Z,7.5
2017-03-15T01:36:28.106Z,7.5
2017-03-15T01:37:30.304Z,7.5
2017-03-15T01:38:32.161Z,7.5
2017-03-15T01:39:34.356Z,7.4
2017-03-15T01:40:36.219Z,7.4
2017-03-15T01:41:38.757Z,7.4
2017-03-15T01:42:41.305Z,7.4
2017-03-15T01:43:43.499Z,7.5
2017-03-15T01:44:45.361Z,7.4
2017-03-15T01:45:47.214Z,7.3
2017-03-15T01:46:49.081Z,7.3
2017-03-15T01:47:51.628Z,7.4
2017-03-15T01:48:53.832Z,7.4
2017-03-15T01:49:55.705Z,7.4
2017-03-15T01:50:57.910Z,7.3
2017-03-15T01:52:00.128Z,7.3
2017-03-15T01:53:01.992Z,7.3
2017-03-15T01:54:03.863Z,7.3
2017-03-15T01:55:05.728Z,7.3
2017-03-15T01:56:07.587Z,7.3
2017-03-15T01:57:09.461Z,7.3
2017-03-15T01:58:11.325Z,7.3
2017-03-15T01:59:13.177Z,7.2
2017-03-15T02:00:15.046Z,7.2
2017-03-15T02:01:16.903Z,7.2
2017-03-15T02:02:18.777Z,7.2
2017-03-15T02:03:20.644Z,7.1
2017-03-15T02:04:22.502Z,7.1
2017-03-15T02:05:25.047Z,7.1
2017-03-15T02:06:27.255Z,7.1
2017-03-15T02:07:29.448Z,7.1
2017-03-15T02:08:31.985Z,7.1
2017-03-15T02:09:34.177Z,7.1
2017-03-15T02:10:36.041Z,7.1
2017-03-15T02:11:37.903Z,7.1
2017-03-15T02:12:40.107Z,7
2017-03-15T02:13:42.629Z,7
2017-03-15T02:14:44.836Z,7
2017-03-15T02:15:47.054Z,6.9
2017-03-15T02:16:48.932Z,6.9
2017-03-15T02:17:50.779Z,6.9
2017-03-15T02:18:52.652Z,6.9
2017-03-15T02:19:54.518Z,6.8
2017-03-15T02:20:56.386Z,6.8
2017-03-15T02:21:58.603Z,6.8
2017-03-15T02:23:00.451Z,6.9
2017-03-15T02:24:02.319Z,6.9
2017-03-15T02:25:04.190Z,6.9
2017-03-15T02:26:06.409Z,6.9
2017-03-15T02:27:08.607Z,6.8
2017-03-15T02:28:10.465Z,6.8
2017-03-15T02:29:12.680Z,6.9
2017-03-15T02:30:14.874Z,6.9
2017-03-15T02:31:16.738Z,6.9
2017-03-15T02:32:18.589Z,6.9
2017-03-15T02:33:20.451Z,6.9
2017-03-15T02:34:22.312Z,6.9
2017-03-15T02:35:24.160Z,6.9
2017-03-15T02:36:26.019Z,6.8
2017-03-15T02:37:27.893Z,6.8
2017-03-15T02:38:29.750Z,6.7
2017-03-15T02:39:31.601Z,6.9
2017-03-15T02:40:34.131Z,6.8
2017-03-15T02:41:35.993Z,6.8
2017-03-15T02:42:37.854Z,6.9
2017-03-15T02:43:39.721Z,6.9
2017-03-15T02:44:41.580Z,7
2017-03-15T02:45:43.794Z,7
2017-03-15T02:46:45.691Z,7
2017-03-15T02:47:47.539Z,7
2017-03-15T02:48:49.750Z,6.9
2017-03-15T02:49:51.616Z,6.9
2017-03-15T02:50:53.481Z,6.8
2017-03-15T02:51:55.343Z,6.8
2017-03-15T02:52:57.202Z,6.8
2017-03-15T02:53:59.071Z,6.8
2017-03-15T02:55:00.918Z,6.9
2017-03-15T02:56:02.776Z,6.9
2017-03-15T02:57:04.972Z,6.9
2017-03-15T02:58:06.850Z,6.9
2017-03-15T02:59:08.699Z,6.9
2017-03-15T03:00:10.918Z,6.9
2017-03-15T03:01:12.776Z,6.9
2017-03-15T03:02:14.650Z,6.9
2017-03-15T03:03:16.512Z,6.9
2017-03-15T03:04:18.353Z,6.9
2017-03-15T03:05:20.204Z,6.8
2017-03-15T03:06:22.073Z,6.8
2017-03-15T03:07:24.616Z,6.8
2017-03-15T03:08:26.499Z,6.9
2017-03-15T03:09:28.724Z,6.9
2017-03-15T03:10:30.943Z,6.9
2017-03-15T03:11:33.151Z,6.9
2017-03-15T03:12:35.007Z,6.9
2017-03-15T03:13:36.870Z,6.8
2017-03-15T03:14:38.722Z,6.8
2017-03-15T03:15:40.929Z,6.9
2017-03-15T03:16:42.807Z,6.9
2017-03-15T03:17:45.369Z,6.9
2017-03-15T03:18:47.253Z,6.8
2017-03-15T03:19:49.473Z,6.8
2017-03-15T03:20:52.035Z,6.9
2017-03-15T03:21:53.906Z,6.9
2017-03-15T03:22:56.109Z,6.9
2017-03-15T03:23:58.319Z,6.9
2017-03-15T03:25:00.511Z,6.8
2017-03-15T03:26:02.709Z,6.9
2017-03-15T03:27:04.587Z,6.8
2017-03-15T03:28:07.131Z,6.9
2017-03-15T03:29:09.356Z,6.9
2017-03-15T03:30:11.574Z,6.9
2017-03-15T03:31:13.808Z,6.9
2017-03-15T03:32:15.672Z,6.9
2017-03-15T03:33:17.877Z,6.9
2017-03-15T03:34:19.727Z,6.9
2017-03-15T03:35:21.929Z,6.8
2017-03-15T03:36:23.777Z,6.8
2017-03-15T03:37:25.651Z,6.8
2017-03-15T03:38:27.837Z,6.7
2017-03-15T03:39:30.033Z,6.7
2017-03-15T03:40:33.239Z,6.8
2017-03-15T03:41:35.094Z,6.7
2017-03-15T03:42:37.292Z,6.7
2017-03-15T03:43:40.170Z,6.6
2017-03-15T03:44:42.379Z,6.6
2017-03-15T03:45:44.567Z,6.6
2017-03-15T03:46:46.761Z,6.6
2017-03-15T03:47:48.956Z,6.5
2017-03-15T03:48:50.841Z,6.6
2017-03-15T03:49:52.691Z,6.6
2017-03-15T03:50:54.553Z,6.5
2017-03-15T03:51:56.766Z,6.5
2017-03-15T03:52:58.630Z,6.6
2017-03-15T03:54:00.494Z,6.6
2017-03-15T03:55:17.714Z,6.5
2017-03-15T03:56:19.568Z,6.5
2017-03-15T03:57:21.463Z,6.5
2017-03-15T03:58:23.330Z,6.5
2017-03-15T03:59:25.201Z,6.5
2017-03-15T04:00:27.734Z,6.4
2017-03-15T04:01:29.593Z,6.5
2017-03-15T04:02:32.154Z,6.5
2017-03-15T04:03:34.012Z,6.6
2017-03-15T04:04:35.873Z,6.4
2017-03-15T04:05:38.065Z,6.4
2017-03-15T04:06:40.279Z,6.5
2017-03-15T04:07:42.159Z,6.5
2017-03-15T04:08:44.382Z,6.4
2017-03-15T04:09:46.248Z,6.3
2017-03-15T04:10:48.795Z,6.4
2017-03-15T04:11:50.646Z,6.3
2017-03-15T04:12:52.842Z,6.3
2017-03-15T04:13:55.035Z,6.3
2017-03-15T04:14:56.887Z,6.2
2017-03-15T04:15:58.754Z,6.2
2017-03-15T04:17:00.608Z,6.2
2017-03-15T04:18:02.463Z,6.2
2017-03-15T04:19:04.324Z,6.3
2017-03-15T04:20:06.511Z,6.2
2017-03-15T04:21:08.378Z,6.2
2017-03-15T04:22:10.223Z,6.2
2017-03-15T04:23:12.085Z,6.3
2017-03-15T04:24:13.944Z,6.3
2017-03-15T04:25:16.138Z,6.3
2017-03-15T04:26:18.703Z,6.2
2017-03-15T04:27:20.573Z,6.2
2017-03-15T04:28:22.429Z,6.1
2017-03-15T04:29:24.630Z,6.1
2017-03-15T04:30:26.509Z,6.1
2017-03-15T04:31:28.698Z,6.1
2017-03-15T04:32:31.924Z,6.1
2017-03-15T04:33:34.107Z,6.1
2017-03-15T04:34:36.322Z,6.1
2017-03-15T04:35:38.527Z,6.1
2017-03-15T04:36:40.547Z,6.1
2017-03-15T04:37:42.393Z,6.2
2017-03-15T04:38:44.256Z,6.2
2017-03-15T04:39:46.467Z,6.1
2017-03-15T04:40:49.026Z,6
2017-03-15T04:41:51.261Z,6
2017-03-15T04:42:53.121Z,6
2017-03-15T04:43:55.326Z,5.9
2017-03-15T04:44:57.183Z,6
2017-03-15T04:45:59.052Z,6
2017-03-15T04:47:01.249Z,6
2017-03-15T04:48:04.143Z,6
2017-03-15T04:49:06.005Z,6
2017-03-15T04:50:07.857Z,6
2017-03-15T04:51:09.732Z,6.1
2017-03-15T04:52:11.615Z,6
2017-03-15T04:53:13.814Z,6
2017-03-15T04:54:15.683Z,6
2017-03-15T04:55:17.538Z,5.9
2017-03-15T04:56:20.092Z,5.9
2017-03-15T04:57:21.955Z,5.9
2017-03-15T04:58:23.804Z,5.9
2017-03-15T04:59:25.662Z,5.9
2017-03-15T05:00:27.554Z,6
2017-03-15T05:01:29.417Z,5.9
2017-03-15T05:02:31.624Z,5.9
2017-03-15T05:03:33.819Z,6
2017-03-15T05:04:35.667Z,5.9
2017-03-15T05:05:37.885Z,5.9
2017-03-15T05:06:40.091Z,5.9
2017-03-15T05:07:42.306Z,5.9
2017-03-15T05:08:44.830Z,5.8
2017-03-15T05:09:46.701Z,5.7
2017-03-15T05:10:48.890Z,5.7
2017-03-15T05:11:50.766Z,5.8
2017-03-15T05:12:52.612Z,5.8
2017-03-15T05:13:54.802Z,5.8
2017-03-15T05:14:56.997Z,5.8
2017-03-15T05:15:58.852Z,5.8
2017-03-15T05:17:00.721Z,5.8
2017-03-15T05:18:02.916Z,5.7
2017-03-15T05:19:04.783Z,5.7
2017-03-15T05:20:06.632Z,5.6
2017-03-15T05:21:08.841Z,5.4
2017-03-15T05:22:10.695Z,5.4
2017-03-15T05:23:12.893Z,5.4
2017-03-15T05:24:15.101Z,5.4
2017-03-15T05:25:16.968Z,5.4
2017-03-15T05:26:18.842Z,5.4
2017-03-15T05:27:20.702Z,5.4
2017-03-15T05:28:23.243Z,5.4
2017-03-15T05:29:25.805Z,5.4
2017-03-15T05:30:27.674Z,5.4
2017-03-15T05:31:29.576Z,5.3
2017-03-15T05:32:31.764Z,5.3
2017-03-15T05:33:34.304Z,5.4
2017-03-15T05:34:36.159Z,5.4
2017-03-15T05:35:38.008Z,5.3
2017-03-15T05:36:39.866Z,5.2
2017-03-15T05:37:42.420Z,5.2
2017-03-15T05:38:44.971Z,5.2
2017-03-15T05:39:47.532Z,5.2
2017-03-15T05:40:50.080Z,5.2
2017-03-15T05:41:52.267Z,5.2
2017-03-15T05:42:54.123Z,5.3
2017-03-15T05:43:55.991Z,5.3
2017-03-15T05:44:57.848Z,5.3
2017-03-15T05:46:00.061Z,5.3
2017-03-15T05:47:01.914Z,5.3
2017-03-15T05:48:03.776Z,5.2
2017-03-15T05:49:06.318Z,5.2
2017-03-15T05:50:08.243Z,5.1
2017-03-15T05:51:10.448Z,5.1
2017-03-15T05:52:12.653Z,5.1
2017-03-15T05:53:14.537Z,5
2017-03-15T05:54:16.422Z,5
2017-03-15T05:55:18.287Z,5.1
2017-03-15T05:56:20.185Z,5.1
2017-03-15T05:57:22.475Z,5.1
2017-03-15T05:58:24.733Z,5.1
2017-03-15T05:59:26.607Z,5
2017-03-15T06:00:28.492Z,5
2017-03-15T06:01:30.441Z,5.1
2017-03-15T06:02:32.317Z,5.2
2017-03-15T06:03:34.855Z,5.2
2017-03-15T06:04:37.442Z,5.3
2017-03-15T06:05:39.640Z,5.2
2017-03-15T06:06:41.594Z,5.3
2017-03-15T06:07:43.787Z,5.3
2017-03-15T06:08:45.988Z,5.3
2017-03-15T06:09:47.945Z,5.4
2017-03-15T06:10:50.168Z,5.4
2017-03-15T06:11:52.145Z,5.5
2017-03-15T06:12:54.690Z,5.4
2017-03-15T06:13:56.951Z,5.4
2017-03-15T06:14:59.153Z,5.4
2017-03-15T06:16:01.021Z,5.4
2017-03-15T06:17:03.232Z,5.3
2017-03-15T06:18:05.101Z,5.4
2017-03-15T06:19:07.682Z,5.4
2017-03-15T06:20:09.630Z,5.3
2017-03-15T06:21:11.879Z,5.4
2017-03-15T06:22:13.842Z,5.4
2017-03-15T06:23:15.723Z,5.5
2017-03-15T06:24:17.644Z,5.5
2017-03-15T06:25:19.497Z,5.5
2017-03-15T06:26:22.081Z,5.5
2017-03-15T06:27:24.315Z,5.4
2017-03-15T06:28:26.583Z,5.4
2017-03-15T06:29:28.846Z,5.3
2017-03-15T06:30:30.761Z,5.5
2017-03-15T06:31:32.693Z,5.6
2017-03-15T06:32:35.314Z,5.5
2017-03-15T06:33:37.173Z,5.6
2017-03-15T06:34:39.058Z,5.7
2017-03-15T06:35:41.656Z,5.7
2017-03-15T06:36:44.199Z,5.7
2017-03-15T06:37:46.742Z,5.7
2017-03-15T06:38:49.306Z,5.8
2017-03-15T06:39:52.551Z,5.8
2017-03-15T06:40:54.816Z,5.9
2017-03-15T06:41:57.048Z,5.9
2017-03-15T06:42:58.925Z,5.9
2017-03-15T06:44:00.786Z,5.9
2017-03-15T06:45:03.003Z,5.9
2017-03-15T06:46:04.882Z,6
2017-03-15T06:47:07.116Z,6
2017-03-15T06:48:08.969Z,6.1
2017-03-15T06:49:11.242Z,6.1
2017-03-15T06:50:13.123Z,6.1
2017-03-15T06:51:14.987Z,6.2
2017-03-15T06:52:16.915Z,6.2
2017-03-15T06:53:19.189Z,6.2
2017-03-15T06:54:21.042Z,6.2
2017-03-15T06:55:22.909Z,6.3
2017-03-15T06:56:25.800Z,6.3
2017-03-15T06:57:28.064Z,6.3
2017-03-15T06:58:30.283Z,6.3
2017-03-15T06:59:32.177Z,6.3
2017-03-15T07:00:34.387Z,6.3
2017-03-15T07:01:36.744Z,6.2
2017-03-15T07:02:38.642Z,6.2
2017-03-15T07:03:40.622Z,6.3
2017-03-15T07:04:42.484Z,6.3
2017-03-15T07:05:45.050Z,6.3
2017-03-15T07:06:47.246Z,6.3
2017-03-15T07:07:49.447Z,6.4
2017-03-15T07:08:51.321Z,6.4
2017-03-15T07:09:53.536Z,6.4
2017-03-15T07:10:55.452Z,6.4
2017-03-15T07:11:57.876Z,6.5
2017-03-15T07:13:00.092Z,6.5
2017-03-15T07:14:01.962Z,6.5
2017-03-15T07:15:04.173Z,6.5
2017-03-15T07:16:06.407Z,6.5
2017-03-15T07:17:08.268Z,6.5
2017-03-15T07:18:10.835Z,6.5
2017-03-15T07:19:13.719Z,6.5
2017-03-15T07:20:16.102Z,6.6
2017-03-15T07:21:17.969Z,6.6
2017-03-15T07:22:19.842Z,6.6
2017-03-15T07:23:22.292Z,6.6
2017-03-15T07:24:24.133Z,6.7
2017-03-15T07:25:26.344Z,6.7
2017-03-15T07:26:28.448Z,6.8
2017-03-15T07:27:30.305Z,6.8
2017-03-15T07:28:32.189Z,6.8
2017-03-15T07:29:34.333Z,6.8
2017-03-15T07:30:36.210Z,6.8
2017-03-15T07:31:38.080Z,6.8
2017-03-15T07:32:40.147Z,6.9
2017-03-15T07:33:42.013Z,6.9
2017-03-15T07:34:43.920Z,6.9
2017-03-15T07:35:45.976Z,6.9
2017-03-15T07:36:48.524Z,7
2017-03-15T07:37:50.392Z,7.1
2017-03-15T07:38:52.518Z,7.1
2017-03-15T07:39:54.724Z,7.1
2017-03-15T07:40:56.593Z,7.2
2017-03-15T07:41:59.110Z,7.3
2017-03-15T07:43:00.973Z,7.3
2017-03-15T07:44:02.849Z,7.4
2017-03-15T07:45:04.769Z,7.4
2017-03-15T07:46:06.963Z,7.4
2017-03-15T07:47:08.844Z,7.5
2017-03-15T07:48:11.289Z,7.5
2017-03-15T07:49:13.167Z,7.6
2017-03-15T07:50:15.367Z,7.7
2017-03-15T07:51:17.569Z,7.7
2017-03-15T07:52:20.118Z,7.7
2017-03-15T07:53:22.596Z,7.6
2017-03-15T07:54:24.471Z,7.7
2017-03-15T07:55:26.712Z,7.7
2017-03-15T07:56:28.864Z,7.8
2017-03-15T07:57:31.093Z,7.8
2017-03-15T07:58:32.987Z,7.8
2017-03-15T07:59:35.440Z,8.1
2017-03-15T08:00:37.324Z,7.9
2017-03-15T08:01:39.187Z,8
2017-03-15T08:02:41.193Z,8.1
2017-03-15T08:03:43.402Z,8.3
2017-03-15T08:04:45.619Z,8.5
2017-03-15T08:05:47.475Z,8.5
2017-03-15T08:06:49.341Z,8.4
2017-03-15T08:07:51.215Z,8.4
2017-03-15T08:08:53.253Z,8.3
2017-03-15T08:09:55.129Z,8.5
2017-03-15T08:10:57.339Z,8.5
2017-03-15T08:11:59.899Z,8.5
2017-03-15T08:13:01.774Z,8.4
2017-03-15T08:14:03.622Z,8.5
2017-03-15T08:15:05.504Z,8.8
2017-03-15T08:16:07.374Z,8.8
2017-03-15T08:17:09.255Z,8.7
2017-03-15T08:18:11.611Z,8.8
2017-03-15T08:19:13.486Z,8.8
2017-03-15T08:20:15.353Z,8.9
2017-03-15T08:21:18.001Z,9
2017-03-15T08:22:19.880Z,9
2017-03-15T08:23:21.743Z,9.2
2017-03-15T08:24:23.954Z,9
2017-03-15T08:25:26.525Z,9.2
2017-03-15T08:26:28.684Z,9.2
2017-03-15T08:27:30.555Z,9.2
2017-03-15T08:28:32.437Z,9.2
2017-03-15T08:29:34.484Z,9.2
2017-03-15T08:30:36.351Z,9.3
2017-03-15T08:31:38.228Z,9.3
2017-03-15T08:32:40.102Z,9
2017-03-15T08:33:41.997Z,9.3
2017-03-15T08:34:43.879Z,9.6
2017-03-15T08:35:45.846Z,9.6
2017-03-15T08:36:48.055Z,9.5
2017-03-15T08:37:49.922Z,9.5
2017-03-15T08:38:51.807Z,9.7
2017-03-15T08:39:53.672Z,9.9
2017-03-15T08:40:55.537Z,9.8
2017-03-15T08:41:57.427Z,9.7
2017-03-15T08:42:59.290Z,9.7
2017-03-15T08:44:01.152Z,9.7
2017-03-15T08:45:03.351Z,9.5
2017-03-15T08:46:05.225Z,9.6
2017-03-15T08:47:07.445Z,9.9
2017-03-15T08:48:09.316Z,10.1
2017-03-15T08:49:11.183Z,9.9
2017-03-15T08:50:13.042Z,10
2017-03-15T08:51:14.904Z,10.2
2017-03-15T08:52:17.114Z,10.2
2017-03-15T08:53:18.995Z,10.4
2017-03-15T08:54:20.875Z,10.5
2017-03-15T08:55:22.736Z,10.3
2017-03-15T08:56:24.611Z,10.4
2017-03-15T08:57:26.492Z,9.9
2017-03-15T08:58:28.372Z,10.1
2017-03-15T08:59:30.237Z,10.3
2017-03-15T09:00:32.435Z,10.8
2017-03-15T09:01:34.300Z,10.7
2017-03-15T09:02:36.164Z,10.6
2017-03-15T09:03:38.035Z,10.8
2017-03-15T09:04:40.239Z,11.1
2017-03-15T09:05:42.106Z,11.1
2017-03-15T09:06:43.976Z,10.9
2017-03-15T09:07:45.837Z,11
2017-03-15T09:08:47.686Z,10.5
2017-03-15T09:09:49.555Z,10.5
2017-03-15T09:10:51.418Z,10.7
2017-03-15T09:11:53.289Z,11
2017-03-15T09:12:55.533Z,10.7
2017-03-15T09:13:58.093Z,10.4
2017-03-15T09:14:59.954Z,10.7
2017-03-15T09:16:01.820Z,10.8
2017-03-15T09:17:03.700Z,10.8
2017-03-15T09:18:05.906Z,11.1
2017-03-15T09:19:08.107Z,11
2017-03-15T09:20:09.990Z,11.4
2017-03-15T09:21:11.877Z,11.2
2017-03-15T09:22:13.751Z,11.4
2017-03-15T09:23:15.953Z,11.6
2017-03-15T09:24:18.173Z,11.3
2017-03-15T09:25:20.391Z,11.3
2017-03-15T09:26:22.268Z,11.3
2017-03-15T09:27:24.478Z,11.6
2017-03-15T09:28:26.349Z,11.4
2017-03-15T09:29:28.564Z,11.6
2017-03-15T09:30:30.778Z,11.6
2017-03-15T09:31:32.650Z,11.9
2017-03-15T09:32:34.538Z,11.8
2017-03-15T09:33:36.754Z,11.6
2017-03-15T09:34:38.622Z,11.9
2017-03-15T09:35:40.501Z,11.9
2017-03-15T09:36:42.369Z,11.9
2017-03-15T09:37:44.244Z,11.9
2017-03-15T09:38:46.122Z,11.7
2017-03-15T09:39:48.004Z,11.6
2017-03-15T09:40:50.562Z,11.7
2017-03-15T09:41:52.418Z,11.7
2017-03-15T09:42:54.629Z,12
2017-03-15T09:43:56.502Z,12.2
2017-03-15T09:44:58.366Z,12.5
2017-03-15T09:46:00.235Z,12.5
2017-03-15T09:47:02.123Z,12.6
2017-03-15T09:48:04.342Z,12.3
2017-03-15T09:49:06.220Z,12.3
2017-03-15T09:50:08.085Z,11.9
2017-03-15T09:51:09.961Z,11.7
2017-03-15T09:52:11.828Z,12.2
2017-03-15T09:53:13.737Z,12.2
2017-03-15T09:54:15.602Z,12.2
2017-03-15T09:55:17.473Z,12.7
2017-03-15T09:56:19.343Z,12.6
2017-03-15T09:57:21.222Z,12.6
2017-03-15T09:58:23.088Z,12.7
2017-03-15T09:59:25.312Z,12.8
2017-03-15T10:00:27.175Z,12.1
2017-03-15T10:01:29.054Z,12.3
2017-03-15T10:02:30.913Z,12.1
2017-03-15T10:03:33.135Z,12.2
2017-03-15T10:04:34.995Z,12
2017-03-15T10:05:36.895Z,12.1
2017-03-15T10:06:38.757Z,11.7
2017-03-15T10:07:40.623Z,12.2
2017-03-15T10:08:42.493Z,12.4
2017-03-15T10:09:44.720Z,12.4
2017-03-15T10:10:46.590Z,12.1
2017-03-15T10:11:48.812Z,11.9
2017-03-15T10:12:50.694Z,12.6
2017-03-15T10:13:52.566Z,12.7
2017-03-15T10:14:54.775Z,13
2017-03-15T10:15:56.641Z,12.9
2017-03-15T10:16:58.505Z,13
2017-03-15T10:18:00.372Z,13
2017-03-15T10:19:02.228Z,12.9
2017-03-15T10:20:04.106Z,12.6
2017-03-15T10:21:05.975Z,12.9
2017-03-15T10:22:07.870Z,13.2
2017-03-15T10:23:09.731Z,13
2017-03-15T10:24:11.616Z,13.2
2017-03-15T10:25:13.482Z,13.3
2017-03-15T10:26:15.342Z,13
2017-03-15T10:27:17.218Z,12.6
2017-03-15T10:28:19.080Z,12.9
2017-03-15T10:29:20.943Z,13
2017-03-15T10:30:22.821Z,13.2
2017-03-15T10:31:24.671Z,13.1
2017-03-15T10:32:26.539Z,13.5
2017-03-15T10:33:28.408Z,13.2
2017-03-15T10:34:30.281Z,13.8
2017-03-15T10:35:32.139Z,14
2017-03-15T10:36:34.010Z,13.7
2017-03-15T10:37:35.877Z,14.3
2017-03-15T10:38:37.754Z,13.8
2017-03-15T10:39:39.635Z,13.7
2017-03-15T10:40:41.496Z,14
2017-03-15T10:41:43.358Z,13.1
2017-03-15T10:42:45.572Z,13.5
2017-03-15T10:43:47.434Z,13.3
2017-03-15T10:44:49.655Z,13.5
2017-03-15T10:45:51.522Z,13.3
2017-03-15T10:46:53.736Z,13.2
2017-03-15T10:47:55.599Z,13.9
2017-03-15T10:48:57.476Z,13.5
2017-03-15T10:49:59.346Z,13.6
2017-03-15T10:51:01.202Z,14
2017-03-15T10:52:03.437Z,13.7
2017-03-15T10:53:05.299Z,13.5
2017-03-15T10:54:07.158Z,13.5
2017-03-15T10:55:09.020Z,13.6
2017-03-15T10:56:11.222Z,13.2
2017-03-15T10:57:13.125Z,13.5
2017-03-15T10:58:15.007Z,13.7
2017-03-15T10:59:16.873Z,14.1
2017-03-15T11:00:18.736Z,14.4
2017-03-15T11:01:20.601Z,14.6
2017-03-15T11:02:22.478Z,13.9
2017-03-15T11:03:24.345Z,14.3
2017-03-15T11:04:26.201Z,14.4
2017-03-15T11:05:28.404Z,13.7
2017-03-15T11:06:30.279Z,13.6
2017-03-15T11:07:32.169Z,14.2
2017-03-15T11:08:34.043Z,13.8
2017-03-15T11:09:35.911Z,13.5
2017-03-15T11:10:37.777Z,14
2017-03-15T11:11:39.637Z,13.3
2017-03-15T11:12:41.511Z,13.2
2017-03-15T11:13:43.375Z,13
2017-03-15T11:14:45.258Z,13.8
2017-03-15T11:15:47.134Z,13.2
2017-03-15T11:16:49.356Z,14
2017-03-15T11:17:51.248Z,14.3
2017-03-15T11:18:53.124Z,14.3
2017-03-15T11:19:54.979Z,14.6
2017-03-15T11:20:56.856Z,14.3
2017-03-15T11:21:58.725Z,13.9
2017-03-15T11:23:00.590Z,14.1
2017-03-15T11:24:02.447Z,14
2017-03-15T11:25:04.318Z,13.7
2017-03-15T11:26:06.185Z,14
2017-03-15T11:27:08.385Z,14.1
2017-03-15T11:28:10.255Z,13.5
2017-03-15T11:29:12.126Z,13.6
2017-03-15T11:30:14.325Z,13.8
2017-03-15T11:31:16.194Z,13.4
2017-03-15T11:32:18.387Z,14.3
2017-03-15T11:33:20.937Z,13.8
2017-03-15T11:34:22.808Z,13.8
2017-03-15T11:35:24.678Z,13.9
2017-03-15T11:36:26.539Z,13.9
2017-03-15T11:37:28.411Z,13.9
2017-03-15T11:38:30.286Z,13.9
2017-03-15T11:39:32.159Z,13.9
2017-03-15T11:40:34.321Z,13.8
2017-03-15T11:41:36.193Z,14
2017-03-15T11:42:38.081Z,13.8
2017-03-15T11:43:39.950Z,14.3
2017-03-15T11:44:41.810Z,14.2
2017-03-15T11:45:43.668Z,14.1
2017-03-15T11:46:45.527Z,14
2017-03-15T11:47:47.388Z,14.1
2017-03-15T11:48:49.274Z,14.2
2017-03-15T11:49:51.137Z,14.6
2017-03-15T11:50:52.995Z,14.3
2017-03-15T11:51:54.863Z,14.1
2017-03-15T11:52:56.719Z,14.4
2017-03-15T11:53:58.589Z,14.8
2017-03-15T11:55:00.446Z,14.5
2017-03-15T11:56:02.315Z,14.9
2017-03-15T11:57:04.167Z,14.6
2017-03-15T11:58:06.036Z,14.7
2017-03-15T11:59:07.901Z,15.2
2017-03-15T12:00:09.767Z,14.7
2017-03-15T12:01:11.622Z,13.9
2017-03-15T12:02:13.491Z,14.5
2017-03-15T12:03:15.349Z,14.8
2017-03-15T12:04:17.558Z,14.6
2017-03-15T12:05:19.422Z,13.7
2017-03-15T12:06:21.292Z,14.4
2017-03-15T12:07:23.497Z,14.8
2017-03-15T12:08:25.700Z,14.3
2017-03-15T12:09:27.560Z,14.5
2017-03-15T12:10:29.423Z,14.5
2017-03-15T12:11:31.289Z,14.7
2017-03-15T12:12:33.152Z,14
2017-03-15T12:13:35.012Z,14.4
2017-03-15T12:14:37.216Z,14.4
2017-03-15T12:15:39.416Z,14.4
2017-03-15T12:16:41.286Z,14.6
2017-03-15T12:17:43.151Z,14.7
2017-03-15T12:18:45.012Z,14.8
2017-03-15T12:19:46.876Z,14.8
2017-03-15T12:20:48.745Z,14.6
2017-03-15T12:21:50.605Z,13.9
2017-03-15T12:22:52.809Z,14.6
2017-03-15T12:23:55.011Z,14.5
2017-03-15T12:24:56.876Z,14.6
2017-03-15T12:25:58.739Z,14.5
2017-03-15T12:27:00.939Z,13.9
2017-03-15T12:28:02.823Z,14.1
2017-03-15T12:29:04.683Z,14.8
2017-03-15T12:30:06.560Z,14.6
2017-03-15T12:31:08.430Z,14.8
2017-03-15T12:32:10.288Z,14.2
2017-03-15T12:33:12.156Z,14.1
2017-03-15T12:34:14.018Z,14.4
2017-03-15T12:35:15.891Z,14.6
2017-03-15T12:36:17.748Z,14.5
2017-03-15T12:37:19.643Z,14.5
2017-03-15T12:38:21.515Z,15.1
2017-03-15T12:39:23.391Z,15.2
2017-03-15T12:40:25.254Z,15.8
2017-03-15T12:41:27.128Z,15
2017-03-15T12:42:28.989Z,15.3
2017-03-15T12:43:30.860Z,14.7
2017-03-15T12:44:32.719Z,15
2017-03-15T12:45:34.586Z,14.2
2017-03-15T12:46:36.445Z,14.5
2017-03-15T12:47:38.314Z,15.2
2017-03-15T12:48:40.195Z,13.9
2017-03-15T12:49:42.086Z,14
2017-03-15T12:50:43.962Z,14.2
2017-03-15T12:51:45.834Z,14.1
2017-03-15T12:52:47.707Z,14.5
2017-03-15T12:53:49.584Z,14.8
2017-03-15T12:54:51.790Z,14.4
2017-03-15T12:55:53.675Z,14.2
2017-03-15T12:56:55.539Z,14.2
2017-03-15T12:57:57.761Z,14.4
2017-03-15T12:58:59.622Z,14.5
2017-03-15T13:00:01.819Z,14.8
2017-03-15T13:01:03.687Z,14.7
2017-03-15T13:02:05.556Z,14.8
2017-03-15T13:03:07.420Z,14.7
2017-03-15T13:04:09.282Z,14.9
2017-03-15T13:05:11.145Z,14.3
2017-03-15T13:06:13.025Z,13.9
2017-03-15T13:07:14.892Z,14.1
2017-03-15T13:08:17.109Z,15
2017-03-15T13:09:18.977Z,14.4
2017-03-15T13:10:20.849Z,14.8
2017-03-15T13:11:22.730Z,14.8
2017-03-15T13:12:24.596Z,14.7
2017-03-15T13:13:26.499Z,13.9
2017-03-15T13:14:28.362Z,14.6
2017-03-15T13:15:30.222Z,14.9
2017-03-15T13:16:32.099Z,14.8
2017-03-15T13:17:33.965Z,13.8
2017-03-15T13:18:35.840Z,14.2
2017-03-15T13:19:37.704Z,14.1
2017-03-15T13:20:39.916Z,14.5
2017-03-15T13:21:41.780Z,14.2
2017-03-15T13:22:43.647Z,13.9
2017-03-15T13:23:45.512Z,13.7
2017-03-15T13:24:47.371Z,13.9
2017-03-15T13:25:49.242Z,14.1
2017-03-15T13:26:51.115Z,14.1
2017-03-15T13:27:52.978Z,13.6
2017-03-15T13:28:54.843Z,13.7
2017-03-15T13:29:56.715Z,14.4
2017-03-15T13:30:58.616Z,14.1
2017-03-15T13:32:00.481Z,14.1
2017-03-15T13:33:02.350Z,14.4
2017-03-15T13:34:04.215Z,14.4
2017-03-15T13:35:06.087Z,14.1
2017-03-15T13:36:07.953Z,14.2
2017-03-15T13:37:09.818Z,14.7
2017-03-15T13:38:11.690Z,14.9
2017-03-15T13:39:13.562Z,14.4
2017-03-15T13:40:15.431Z,14.1
2017-03-15T13:41:17.293Z,14.1
2017-03-15T13:42:19.156Z,14
2017-03-15T13:43:21.025Z,13.6
2017-03-15T13:44:22.899Z,14
2017-03-15T13:45:24.779Z,14.3
2017-03-15T13:46:26.677Z,14.3
2017-03-15T13:47:28.879Z,13.3
2017-03-15T13:48:30.751Z,13.7
2017-03-15T13:49:32.609Z,14.1
2017-03-15T13:50:34.470Z,13.9
2017-03-15T13:51:36.327Z,14.1
2017-03-15T13:52:38.203Z,13.9
2017-03-15T13:53:40.068Z,14.3
2017-03-15T13:54:41.935Z,14.1
2017-03-15T13:55:44.144Z,14.1
2017-03-15T13:56:46.343Z,13.7
2017-03-15T13:57:48.202Z,14
2017-03-15T13:58:50.075Z,13.2
2017-03-15T13:59:51.942Z,13.4
2017-03-15T14:00:53.807Z,13.5
2017-03-15T14:01:55.680Z,13.5
2017-03-15T14:02:57.542Z,13.5
2017-03-15T14:03:59.416Z,13.4
2017-03-15T14:05:01.281Z,12.8
2017-03-15T14:06:03.161Z,13.2
2017-03-15T14:07:05.023Z,13.5
2017-03-15T14:08:06.886Z,13.2